sensor_id;sensor_type;location;lat;lon;timestamp;pressure;altitude;pressure_sealevel;temperature;humidity
69911;BME280;63555;49.920;17.868;2023-07-20T00:03:28;98003.72;;;15.92;97.74
69911;BME280;63555;49.920;17.868;2023-07-20T00:08:29;97996.91;;;15.98;97.94
69911;BME280;63555;49.920;17.868;2023-07-20T00:13:30;97984.25;;;16.08;98.25
69911;BME280;63555;49.920;17.868;2023-07-20T00:18:30;98006.84;;;16.12;97.66
69911;BME280;63555;49.920;17.868;2023-07-20T00:23:31;98006.84;;;16.04;97.17
69911;BME280;63555;49.920;17.868;2023-07-20T00:28:31;98001.56;;;15.87;97.21
69911;BME280;63555;49.920;17.868;2023-07-20T00:33:31;98002.75;;;15.77;97.79
69911;BME280;63555;49.920;17.868;2023-07-20T00:38:32;98015.69;;;15.80;98.49
69911;BME280;63555;49.920;17.868;2023-07-20T00:43:33;98030.97;;;15.86;99.07
69911;BME280;63555;49.920;17.868;2023-07-20T00:48:33;98040.63;;;15.95;99.77
69911;BME280;63555;49.920;17.868;2023-07-20T00:53:34;98034.78;;;16.00;99.91
69911;BME280;63555;49.920;17.868;2023-07-20T00:58:35;98055.91;;;16.01;100.00
69911;BME280;63555;49.920;17.868;2023-07-20T01:03:35;98036.09;;;16.12;100.00
69911;BME280;63555;49.920;17.868;2023-07-20T01:08:43;98028.94;;;16.12;100.00
69911;BME280;63555;49.920;17.868;2023-07-20T01:13:45;98031.94;;;16.17;100.00
69911;BME280;63555;49.920;17.868;2023-07-20T01:18:45;98041.91;;;16.23;100.00
69911;BME280;63555;49.920;17.868;2023-07-20T01:24:22;98048.06;;;16.16;99.71
69911;BME280;63555;49.920;17.868;2023-07-20T01:29:49;98042.41;;;16.11;99.32
69911;BME280;63555;49.920;17.868;2023-07-20T01:40:52;98043.78;;;15.99;98.77
69911;BME280;63555;49.920;17.868;2023-07-20T01:45:52;98057.72;;;15.84;97.88
69911;BME280;63555;49.920;17.868;2023-07-20T01:50:53;98051.25;;;15.71;96.77
69911;BME280;63555;49.920;17.868;2023-07-20T01:55:53;98050.84;;;15.49;95.59
69911;BME280;63555;49.920;17.868;2023-07-20T02:00:56;98056.31;;;15.32;94.70
69911;BME280;63555;49.920;17.868;2023-07-20T02:05:57;98058.91;;;15.15;94.29
69911;BME280;63555;49.920;17.868;2023-07-20T02:10:57;98062.34;;;15.00;93.86
69911;BME280;63555;49.920;17.868;2023-07-20T02:15:57;98065.28;;;14.80;93.74
69911;BME280;63555;49.920;17.868;2023-07-20T02:20:58;98083.06;;;14.62;93.72
69911;BME280;63555;49.920;17.868;2023-07-20T02:25:59;98077.56;;;14.55;93.47
69911;BME280;63555;49.920;17.868;2023-07-20T02:30:59;98092.00;;;14.35;93.52
69911;BME280;63555;49.920;17.868;2023-07-20T02:36:00;98095.75;;;14.24;93.53
69911;BME280;63555;49.920;17.868;2023-07-20T02:41:01;98105.19;;;14.01;93.72
69911;BME280;63555;49.920;17.868;2023-07-20T03:28:53;98119.66;;;13.89;97.30
69911;BME280;63555;49.920;17.868;2023-07-20T03:39:50;98133.19;;;14.21;98.26
69911;BME280;63555;49.920;17.868;2023-07-20T03:44:50;98130.50;;;14.39;98.37
69911;BME280;63555;49.920;17.868;2023-07-20T03:49:51;98131.09;;;14.51;98.52
69911;BME280;63555;49.920;17.868;2023-07-20T03:54:51;98128.75;;;14.48;97.97
69911;BME280;63555;49.920;17.868;2023-07-20T03:59:51;98129.47;;;14.58;98.29
69911;BME280;63555;49.920;17.868;2023-07-20T04:04:52;98126.56;;;14.69;97.93
69911;BME280;63555;49.920;17.868;2023-07-20T04:09:52;98137.41;;;14.76;96.64
69911;BME280;63555;49.920;17.868;2023-07-20T04:14:53;98147.19;;;14.75;95.42
69911;BME280;63555;49.920;17.868;2023-07-20T04:19:53;98158.81;;;14.74;94.62
69911;BME280;63555;49.920;17.868;2023-07-20T04:24:53;98167.28;;;14.78;94.76
69911;BME280;63555;49.920;17.868;2023-07-20T04:29:54;98170.00;;;14.86;95.02
69911;BME280;63555;49.920;17.868;2023-07-20T04:34:54;98178.16;;;14.92;95.10
69911;BME280;63555;49.920;17.868;2023-07-20T04:39:54;98196.22;;;14.89;95.88
69911;BME280;63555;49.920;17.868;2023-07-20T04:44:55;98195.44;;;14.96;95.86
69911;BME280;63555;49.920;17.868;2023-07-20T04:49:55;98201.47;;;15.07;96.40
69911;BME280;63555;49.920;17.868;2023-07-20T04:54:56;98201.66;;;15.13;96.64
69911;BME280;63555;49.920;17.868;2023-07-20T04:59:57;98198.38;;;15.19;97.67
69911;BME280;63555;49.920;17.868;2023-07-20T05:04:57;98194.78;;;15.37;98.39
69911;BME280;63555;49.920;17.868;2023-07-20T05:09:57;98199.63;;;15.75;100.00
69911;BME280;63555;49.920;17.868;2023-07-20T05:14:58;98204.50;;;16.04;100.00
69911;BME280;63555;49.920;17.868;2023-07-20T05:19:58;98204.19;;;16.23;100.00
69911;BME280;63555;49.920;17.868;2023-07-20T05:24:59;98202.03;;;16.43;100.00
69911;BME280;63555;49.920;17.868;2023-07-20T05:29:59;98212.72;;;16.51;99.66
69911;BME280;63555;49.920;17.868;2023-07-20T05:34:59;98197.91;;;16.73;100.00
69911;BME280;63555;49.920;17.868;2023-07-20T05:40:00;98211.34;;;16.96;99.96
69911;BME280;63555;49.920;17.868;2023-07-20T05:45:00;98211.81;;;17.08;98.80
69911;BME280;63555;49.920;17.868;2023-07-20T05:50:00;98206.97;;;17.19;97.81
69911;BME280;63555;49.920;17.868;2023-07-20T05:55:01;98201.59;;;17.36;96.13
69911;BME280;63555;49.920;17.868;2023-07-20T06:00:02;98206.38;;;17.48;94.28
69911;BME280;63555;49.920;17.868;2023-07-20T06:05:03;98205.16;;;17.67;92.59
69911;BME280;63555;49.920;17.868;2023-07-20T06:10:06;98196.66;;;17.95;89.77
69911;BME280;63555;49.920;17.868;2023-07-20T06:15:24;98193.06;;;18.10;88.12
69911;BME280;63555;49.920;17.868;2023-07-20T06:20:25;98194.34;;;18.23;83.41
69911;BME280;63555;49.920;17.868;2023-07-20T06:25:26;98193.78;;;18.27;83.70
69911;BME280;63555;49.920;17.868;2023-07-20T06:30:26;98189.00;;;18.60;80.96
69911;BME280;63555;49.920;17.868;2023-07-20T06:35:27;98182.25;;;20.76;76.44
69911;BME280;63555;49.920;17.868;2023-07-20T06:40:27;98180.94;;;23.42;66.77
69911;BME280;63555;49.920;17.868;2023-07-20T06:45:27;98173.47;;;25.15;58.71
69911;BME280;63555;49.920;17.868;2023-07-20T06:50:28;98190.19;;;26.26;51.54
69911;BME280;63555;49.920;17.868;2023-07-20T06:55:28;98191.25;;;28.12;49.96
69911;BME280;63555;49.920;17.868;2023-07-20T07:00:28;98198.28;;;29.21;44.43
69911;BME280;63555;49.920;17.868;2023-07-20T07:05:29;98198.81;;;30.00;43.54
69911;BME280;63555;49.920;17.868;2023-07-20T07:10:29;98197.13;;;31.01;42.62
69911;BME280;63555;49.920;17.868;2023-07-20T07:15:30;98207.00;;;32.07;40.51
69911;BME280;63555;49.920;17.868;2023-07-20T07:20:30;98191.03;;;32.77;39.83
69911;BME280;63555;49.920;17.868;2023-07-20T07:25:30;98193.28;;;32.95;37.91
69911;BME280;63555;49.920;17.868;2023-07-20T07:30:32;98190.16;;;33.58;37.20
69911;BME280;63555;49.920;17.868;2023-07-20T07:35:32;98196.09;;;33.80;34.99
69911;BME280;63555;49.920;17.868;2023-07-20T07:40:33;98185.13;;;33.95;33.59
69911;BME280;63555;49.920;17.868;2023-07-20T07:45:34;98177.75;;;34.40;33.69
69911;BME280;63555;49.920;17.868;2023-07-20T07:50:36;98178.63;;;34.74;32.80
69911;BME280;63555;49.920;17.868;2023-07-20T07:55:37;98174.56;;;35.01;31.36
69911;BME280;63555;49.920;17.868;2023-07-20T08:00:37;98179.72;;;35.60;31.61
69911;BME280;63555;49.920;17.868;2023-07-20T08:05:38;98172.63;;;36.02;29.99
69911;BME280;63555;49.920;17.868;2023-07-20T08:10:38;98181.94;;;35.05;28.95
69911;BME280;63555;49.920;17.868;2023-07-20T08:15:39;98177.38;;;35.72;29.77
69911;BME280;63555;49.920;17.868;2023-07-20T08:20:39;98181.25;;;35.71;29.03
69911;BME280;63555;49.920;17.868;2023-07-20T08:25:39;98173.22;;;36.18;29.76
69911;BME280;63555;49.920;17.868;2023-07-20T08:30:45;98176.25;;;37.24;28.50
69911;BME280;63555;49.920;17.868;2023-07-20T08:35:46;98184.34;;;38.16;27.54
69911;BME280;63555;49.920;17.868;2023-07-20T08:40:47;98191.84;;;36.45;27.82
69911;BME280;63555;49.920;17.868;2023-07-20T08:45:48;98186.31;;;34.33;31.08
69911;BME280;63555;49.920;17.868;2023-07-20T08:50:51;98186.13;;;32.48;32.42
69911;BME280;63555;49.920;17.868;2023-07-20T08:55:51;98185.44;;;32.00;33.49
69911;BME280;63555;49.920;17.868;2023-07-20T09:00:55;98183.16;;;32.90;32.56
69911;BME280;63555;49.920;17.868;2023-07-20T09:05:55;98184.78;;;32.86;32.13
69911;BME280;63555;49.920;17.868;2023-07-20T09:10:56;98186.69;;;32.60;31.44
69911;BME280;63555;49.920;17.868;2023-07-20T09:15:58;98181.28;;;30.61;33.95
69911;BME280;63555;49.920;17.868;2023-07-20T09:21:00;98182.59;;;29.06;36.78
69911;BME280;63555;49.920;17.868;2023-07-20T09:26:19;98194.34;;;28.04;38.60
69911;BME280;63555;49.920;17.868;2023-07-20T09:31:21;98182.31;;;27.60;38.92
69911;BME280;63555;49.920;17.868;2023-07-20T09:36:22;98169.19;;;28.99;37.79
69911;BME280;63555;49.920;17.868;2023-07-20T09:41:22;98176.69;;;31.98;33.73
69911;BME280;63555;49.920;17.868;2023-07-20T09:46:23;98169.72;;;32.38;32.14
69911;BME280;63555;49.920;17.868;2023-07-20T09:51:23;98188.47;;;31.52;34.12
69911;BME280;63555;49.920;17.868;2023-07-20T09:56:25;98181.81;;;29.88;35.82
69911;BME280;63555;49.920;17.868;2023-07-20T10:01:28;98189.03;;;28.09;38.62
69911;BME280;63555;49.920;17.868;2023-07-20T10:06:32;98194.94;;;26.96;40.45
69911;BME280;63555;49.920;17.868;2023-07-20T10:11:35;98203.13;;;26.24;42.28
69911;BME280;63555;49.920;17.868;2023-07-20T10:16:43;98192.25;;;26.43;43.30
69911;BME280;63555;49.920;17.868;2023-07-20T10:21:55;98184.81;;;29.64;39.21
69911;BME280;63555;49.920;17.868;2023-07-20T10:26:57;98176.53;;;32.25;34.64
69911;BME280;63555;49.920;17.868;2023-07-20T10:31:58;98183.69;;;33.08;33.89
69911;BME280;63555;49.920;17.868;2023-07-20T10:36:59;98188.81;;;32.28;33.38
69911;BME280;63555;49.920;17.868;2023-07-20T10:42:03;98187.25;;;31.22;34.48
69911;BME280;63555;49.920;17.868;2023-07-20T10:47:11;98188.91;;;29.89;36.41
69911;BME280;63555;49.920;17.868;2023-07-20T10:52:12;98188.72;;;28.34;38.40
69911;BME280;63555;49.920;17.868;2023-07-20T10:57:24;98202.44;;;28.44;39.82
69911;BME280;63555;49.920;17.868;2023-07-20T11:02:24;98195.63;;;30.03;37.75
69911;BME280;63555;49.920;17.868;2023-07-20T11:07:37;98181.34;;;32.03;34.86
69911;BME280;63555;49.920;17.868;2023-07-20T11:12:41;98184.16;;;32.23;33.79
69911;BME280;63555;49.920;17.868;2023-07-20T11:17:41;98180.16;;;32.82;31.07
69911;BME280;63555;49.920;17.868;2023-07-20T11:22:42;98192.78;;;31.95;32.65
69911;BME280;63555;49.920;17.868;2023-07-20T11:27:45;98183.25;;;31.03;33.68
69911;BME280;63555;49.920;17.868;2023-07-20T11:32:49;98166.03;;;30.60;35.13
69911;BME280;63555;49.920;17.868;2023-07-20T11:37:49;98168.63;;;32.34;33.33
69911;BME280;63555;49.920;17.868;2023-07-20T11:42:50;98150.94;;;34.37;31.85
69911;BME280;63555;49.920;17.868;2023-07-20T11:47:50;98162.84;;;35.48;28.63
69911;BME280;63555;49.920;17.868;2023-07-20T11:52:51;98151.19;;;35.08;26.13
69911;BME280;63555;49.920;17.868;2023-07-20T11:58:04;98150.69;;;33.89;28.30
69911;BME280;63555;49.920;17.868;2023-07-20T12:03:06;98146.59;;;33.86;29.57
69911;BME280;63555;49.920;17.868;2023-07-20T12:08:10;98146.47;;;33.37;28.76
69911;BME280;63555;49.920;17.868;2023-07-20T12:13:11;98137.16;;;32.06;29.65
69911;BME280;63555;49.920;17.868;2023-07-20T12:18:12;98129.22;;;31.94;29.70
69911;BME280;63555;49.920;17.868;2023-07-20T12:23:12;98132.63;;;31.12;30.00
69911;BME280;63555;49.920;17.868;2023-07-20T12:28:15;98141.94;;;30.79;30.58
69911;BME280;63555;49.920;17.868;2023-07-20T12:33:16;98133.16;;;30.67;30.32
69911;BME280;63555;49.920;17.868;2023-07-20T12:38:17;98124.00;;;29.10;31.46
69911;BME280;63555;49.920;17.868;2023-07-20T12:43:17;98131.06;;;27.70;34.24
69911;BME280;63555;49.920;17.868;2023-07-20T12:48:18;98146.91;;;26.80;35.51
69911;BME280;63555;49.920;17.868;2023-07-20T12:53:18;98144.94;;;26.22;36.12
69911;BME280;63555;49.920;17.868;2023-07-20T12:58:19;98146.47;;;25.69;37.79
69911;BME280;63555;49.920;17.868;2023-07-20T13:03:19;98151.72;;;25.28;38.82
69911;BME280;63555;49.920;17.868;2023-07-20T13:08:19;98158.38;;;24.82;39.24
69911;BME280;63555;49.920;17.868;2023-07-20T13:13:20;98161.63;;;24.66;39.84
69911;BME280;63555;49.920;17.868;2023-07-20T13:18:20;98169.16;;;24.82;39.85
69911;BME280;63555;49.920;17.868;2023-07-20T13:23:21;98168.63;;;24.73;40.02
69911;BME280;63555;49.920;17.868;2023-07-20T13:28:21;98162.28;;;24.61;40.40
69911;BME280;63555;49.920;17.868;2023-07-20T13:33:22;98163.16;;;24.80;39.05
69911;BME280;63555;49.920;17.868;2023-07-20T13:38:22;98165.19;;;25.09;38.40
69911;BME280;63555;49.920;17.868;2023-07-20T13:43:22;98170.47;;;25.78;38.40
69911;BME280;63555;49.920;17.868;2023-07-20T13:48:23;98178.19;;;27.57;37.86
69911;BME280;63555;49.920;17.868;2023-07-20T13:53:23;98175.16;;;29.52;35.91
69911;BME280;63555;49.920;17.868;2023-07-20T13:58:24;98165.81;;;30.67;34.19
69911;BME280;63555;49.920;17.868;2023-07-20T14:03:25;98171.59;;;30.76;32.76
69911;BME280;63555;49.920;17.868;2023-07-20T14:08:25;98176.38;;;29.44;34.93
69911;BME280;63555;49.920;17.868;2023-07-20T14:13:26;98174.19;;;28.57;36.00
69911;BME280;63555;49.920;17.868;2023-07-20T14:18:27;98180.59;;;27.94;37.21
69911;BME280;63555;49.920;17.868;2023-07-20T14:23:28;98177.72;;;28.58;36.79
69911;BME280;63555;49.920;17.868;2023-07-20T14:28:28;98169.50;;;29.20;35.86
69911;BME280;63555;49.920;17.868;2023-07-20T14:33:29;98165.06;;;28.80;36.02
69911;BME280;63555;49.920;17.868;2023-07-20T14:38:31;98163.56;;;28.39;37.04
69911;BME280;63555;49.920;17.868;2023-07-20T14:43:31;98160.44;;;29.14;36.02
69911;BME280;63555;49.920;17.868;2023-07-20T14:48:32;98151.50;;;29.35;35.85
69911;BME280;63555;49.920;17.868;2023-07-20T14:53:32;98159.22;;;29.60;34.46
69911;BME280;63555;49.920;17.868;2023-07-20T14:58:33;98156.53;;;29.43;34.58
69911;BME280;63555;49.920;17.868;2023-07-20T15:03:33;98148.97;;;28.90;33.95
69911;BME280;63555;49.920;17.868;2023-07-20T15:08:34;98155.00;;;28.02;33.42
69911;BME280;63555;49.920;17.868;2023-07-20T15:13:34;98160.84;;;27.18;33.45
69911;BME280;63555;49.920;17.868;2023-07-20T15:18:34;98150.91;;;26.54;33.50
69911;BME280;63555;49.920;17.868;2023-07-20T15:23:35;98152.97;;;27.05;32.53
69911;BME280;63555;49.920;17.868;2023-07-20T15:28:35;98146.78;;;28.42;31.33
69911;BME280;63555;49.920;17.868;2023-07-20T15:33:35;98149.72;;;29.24;30.02
69911;BME280;63555;49.920;17.868;2023-07-20T15:38:36;98150.00;;;29.61;29.37
69911;BME280;63555;49.920;17.868;2023-07-20T15:43:36;98160.31;;;29.04;29.35
69911;BME280;63555;49.920;17.868;2023-07-20T15:48:37;98167.59;;;28.36;30.73
69911;BME280;63555;49.920;17.868;2023-07-20T15:53:37;98178.25;;;27.34;32.24
69911;BME280;63555;49.920;17.868;2023-07-20T15:58:38;98184.41;;;26.53;33.41
69911;BME280;63555;49.920;17.868;2023-07-20T16:03:38;98181.91;;;26.10;33.75
69911;BME280;63555;49.920;17.868;2023-07-20T16:08:38;98184.41;;;25.56;34.71
69911;BME280;63555;49.920;17.868;2023-07-20T16:13:39;98187.16;;;25.13;35.14
69911;BME280;63555;49.920;17.868;2023-07-20T16:18:39;98197.66;;;24.71;35.67
69911;BME280;63555;49.920;17.868;2023-07-20T16:23:39;98204.09;;;24.45;36.11
69911;BME280;63555;49.920;17.868;2023-07-20T16:28:40;98196.88;;;24.39;36.84
69911;BME280;63555;49.920;17.868;2023-07-20T16:33:43;98193.94;;;24.72;36.73
69911;BME280;63555;49.920;17.868;2023-07-20T16:38:44;98203.81;;;24.54;37.12
69911;BME280;63555;49.920;17.868;2023-07-20T16:43:44;98204.06;;;24.07;37.67
69911;BME280;63555;49.920;17.868;2023-07-20T16:48:45;98209.25;;;23.64;38.27
69911;BME280;63555;49.920;17.868;2023-07-20T16:53:45;98208.03;;;23.40;38.52
69911;BME280;63555;49.920;17.868;2023-07-20T16:58:45;98213.22;;;23.35;38.89
69911;BME280;63555;49.920;17.868;2023-07-20T17:03:46;98214.25;;;23.28;39.33
69911;BME280;63555;49.920;17.868;2023-07-20T17:08:48;98211.97;;;23.31;39.71
69911;BME280;63555;49.920;17.868;2023-07-20T17:13:49;98206.38;;;23.33;39.83
69911;BME280;63555;49.920;17.868;2023-07-20T17:18:49;98225.06;;;23.14;40.27
69911;BME280;63555;49.920;17.868;2023-07-20T17:23:49;98223.00;;;22.83;41.13
69911;BME280;63555;49.920;17.868;2023-07-20T17:28:50;98229.19;;;22.58;42.11
69911;BME280;63555;49.920;17.868;2023-07-20T17:33:50;98231.38;;;22.34;42.67
69911;BME280;63555;49.920;17.868;2023-07-20T17:38:51;98233.22;;;22.20;42.85
69911;BME280;63555;49.920;17.868;2023-07-20T17:43:51;98242.72;;;22.16;43.41
69911;BME280;63555;49.920;17.868;2023-07-20T17:48:51;98237.53;;;22.08;44.26
69911;BME280;63555;49.920;17.868;2023-07-20T17:53:52;98241.38;;;21.99;44.78
69911;BME280;63555;49.920;17.868;2023-07-20T17:58:52;98246.97;;;21.98;45.06
69911;BME280;63555;49.920;17.868;2023-07-20T18:03:52;98247.72;;;21.78;45.14
69911;BME280;63555;49.920;17.868;2023-07-20T18:08:53;98257.63;;;21.43;45.86
69911;BME280;63555;49.920;17.868;2023-07-20T18:13:53;98254.00;;;21.02;46.92
69911;BME280;63555;49.920;17.868;2023-07-20T18:18:54;98249.38;;;20.67;47.99
69911;BME280;63555;49.920;17.868;2023-07-20T18:23:55;98265.47;;;20.31;49.13
69911;BME280;63555;49.920;17.868;2023-07-20T18:28:55;98259.94;;;19.97;50.30
69911;BME280;63555;49.920;17.868;2023-07-20T18:33:56;98268.09;;;19.59;51.79
69911;BME280;63555;49.920;17.868;2023-07-20T18:38:57;98273.13;;;19.25;52.85
69911;BME280;63555;49.920;17.868;2023-07-20T18:43:58;98274.13;;;18.86;54.02
69911;BME280;63555;49.920;17.868;2023-07-20T18:48:58;98271.94;;;18.44;55.21
69911;BME280;63555;49.920;17.868;2023-07-20T18:53:59;98280.41;;;18.17;55.93
69911;BME280;63555;49.920;17.868;2023-07-20T18:58:59;98285.06;;;17.92;56.91
69911;BME280;63555;49.920;17.868;2023-07-20T19:04:00;98292.81;;;17.70;57.58
69911;BME280;63555;49.920;17.868;2023-07-20T19:09:01;98302.81;;;17.60;58.02
69911;BME280;63555;49.920;17.868;2023-07-20T19:14:02;98308.66;;;17.56;58.46
69911;BME280;63555;49.920;17.868;2023-07-20T19:19:02;98321.03;;;17.48;58.83
69911;BME280;63555;49.920;17.868;2023-07-20T19:24:04;98321.72;;;17.34;59.32
69911;BME280;63555;49.920;17.868;2023-07-20T19:29:04;98332.38;;;17.18;59.88
69911;BME280;63555;49.920;17.868;2023-07-20T19:34:05;98334.56;;;16.98;60.37
69911;BME280;63555;49.920;17.868;2023-07-20T19:39:05;98337.81;;;16.60;61.76
69911;BME280;63555;49.920;17.868;2023-07-20T19:44:05;98341.09;;;16.45;62.12
69911;BME280;63555;49.920;17.868;2023-07-20T19:49:09;98350.56;;;16.32;62.74
69911;BME280;63555;49.920;17.868;2023-07-20T19:54:09;98349.31;;;16.10;63.33
69911;BME280;63555;49.920;17.868;2023-07-20T19:59:10;98357.28;;;15.68;64.86
69911;BME280;63555;49.920;17.868;2023-07-20T20:04:12;98355.66;;;15.57;65.13
69911;BME280;63555;49.920;17.868;2023-07-20T20:09:13;98357.19;;;15.34;65.97
69911;BME280;63555;49.920;17.868;2023-07-20T20:14:13;98365.63;;;15.29;66.05
69911;BME280;63555;49.920;17.868;2023-07-20T20:19:13;98359.91;;;14.98;67.02
69911;BME280;63555;49.920;17.868;2023-07-20T20:24:14;98370.84;;;14.95;67.03
69911;BME280;63555;49.920;17.868;2023-07-20T20:29:14;98355.81;;;14.86;67.41
69911;BME280;63555;49.920;17.868;2023-07-20T20:34:15;98357.69;;;14.58;68.46
69911;BME280;63555;49.920;17.868;2023-07-20T20:39:15;98359.19;;;14.43;69.28
69911;BME280;63555;49.920;17.868;2023-07-20T20:44:17;98362.47;;;14.27;69.86
69911;BME280;63555;49.920;17.868;2023-07-20T20:49:27;98363.06;;;14.21;70.03
69911;BME280;63555;49.920;17.868;2023-07-20T20:54:28;98362.38;;;14.19;70.03
69911;BME280;63555;49.920;17.868;2023-07-20T20:59:28;98357.00;;;14.11;70.49
69911;BME280;63555;49.920;17.868;2023-07-20T21:04:28;98363.28;;;14.10;70.26
69911;BME280;63555;49.920;17.868;2023-07-20T21:09:29;98362.75;;;14.06;70.31
69911;BME280;63555;49.920;17.868;2023-07-20T21:14:29;98368.34;;;14.03;70.62
69911;BME280;63555;49.920;17.868;2023-07-20T21:19:29;98366.41;;;13.95;70.72
69911;BME280;63555;49.920;17.868;2023-07-20T21:24:30;98374.22;;;13.97;70.84
69911;BME280;63555;49.920;17.868;2023-07-20T21:29:30;98376.88;;;13.97;71.01
69911;BME280;63555;49.920;17.868;2023-07-20T21:34:31;98379.53;;;13.97;70.90
69911;BME280;63555;49.920;17.868;2023-07-20T21:39:31;98372.56;;;13.96;71.11
69911;BME280;63555;49.920;17.868;2023-07-20T21:44:32;98375.25;;;13.77;71.67
69911;BME280;63555;49.920;17.868;2023-07-20T21:49:32;98378.19;;;13.74;71.89
69911;BME280;63555;49.920;17.868;2023-07-20T21:54:33;98378.13;;;13.56;72.41
69911;BME280;63555;49.920;17.868;2023-07-20T21:59:33;98386.09;;;13.46;72.66
69911;BME280;63555;49.920;17.868;2023-07-20T22:04:33;98386.81;;;13.38;72.87
69911;BME280;63555;49.920;17.868;2023-07-20T22:09:34;98394.22;;;13.16;73.60
69911;BME280;63555;49.920;17.868;2023-07-20T22:14:34;98399.78;;;13.03;74.42
69911;BME280;63555;49.920;17.868;2023-07-20T22:19:35;98385.03;;;13.10;74.51
69911;BME280;63555;49.920;17.868;2023-07-20T22:24:36;98388.66;;;13.28;74.35
69911;BME280;63555;49.920;17.868;2023-07-20T22:29:36;98394.63;;;13.40;73.85
69911;BME280;63555;49.920;17.868;2023-07-20T22:34:37;98393.53;;;13.33;74.48
69911;BME280;63555;49.920;17.868;2023-07-20T22:39:38;98395.47;;;13.41;74.42
69911;BME280;63555;49.920;17.868;2023-07-20T22:44:39;98394.47;;;13.42;74.27
69911;BME280;63555;49.920;17.868;2023-07-20T22:49:39;98396.03;;;13.34;74.36
69911;BME280;63555;49.920;17.868;2023-07-20T22:54:40;98397.03;;;13.24;74.87
69911;BME280;63555;49.920;17.868;2023-07-20T22:59:40;98395.22;;;13.24;74.57
69911;BME280;63555;49.920;17.868;2023-07-20T23:04:41;98397.97;;;13.13;74.84
69911;BME280;63555;49.920;17.868;2023-07-20T23:09:41;98386.94;;;12.98;75.34
69911;BME280;63555;49.920;17.868;2023-07-20T23:14:43;98391.53;;;12.96;75.55
69911;BME280;63555;49.920;17.868;2023-07-20T23:19:44;98385.00;;;12.81;75.90
69911;BME280;63555;49.920;17.868;2023-07-20T23:24:44;98388.06;;;12.76;75.81
69911;BME280;63555;49.920;17.868;2023-07-20T23:29:45;98379.56;;;12.73;75.92
69911;BME280;63555;49.920;17.868;2023-07-20T23:34:45;98381.66;;;12.60;76.21
69911;BME280;63555;49.920;17.868;2023-07-20T23:39:46;98389.31;;;12.53;76.74
69911;BME280;63555;49.920;17.868;2023-07-20T23:44:47;98386.94;;;12.50;77.22
69911;BME280;63555;49.920;17.868;2023-07-20T23:49:47;98381.66;;;12.60;77.14
69911;BME280;63555;49.920;17.868;2023-07-20T23:54:48;98378.88;;;12.71;77.06
69911;BME280;63555;49.920;17.868;2023-07-20T23:59:48;98375.53;;;12.79;76.55
